Time;durP1;ratioP1;P1;durP2;ratioP2;P2;SDS_P1;SDS_P2;PMS_P1;PMS_P2;Temp;Humidity;BMP_temperature;BMP_pressure;BME280_temperature;BME280_humidity;BME280_pressure;Samples;Min_cycle;Max_cycle;Signal;HPM_P1;HPM_P2
2023/04/24 00:02:06;;;;;;;2.45;0.30;;;;;;;13.96;67.15;99111.81;10327824;28;20050;-58
2023/04/24 00:07:08;;;;;;;0.30;0.20;;;;;;;13.98;67.21;99105.16;10318975;28;20043;-58
2023/04/24 00:12:10;;;;;;;3.03;0.30;;;;;;;14.07;67.13;99101.06;10313793;28;20058;-58
2023/04/24 00:17:11;;;;;;;1.50;0.40;;;;;;;14.11;66.74;99097.91;10327795;28;20070;-58
2023/04/24 00:22:14;;;;;;;1.40;0.20;;;;;;;14.17;66.80;99097.00;10316602;28;20070;-58
2023/04/24 00:27:15;;;;;;;7.50;0.30;;;;;;;14.25;66.53;99091.25;10317528;28;20125;-58
2023/04/24 00:32:17;;;;;;;1.02;0.20;;;;;;;14.27;66.71;99089.16;10327810;28;20096;-59
2023/04/24 00:37:19;;;;;;;2.35;0.45;;;;;;;14.41;66.56;99089.75;10320764;28;20050;-59
2023/04/24 00:42:20;;;;;;;2.30;0.30;;;;;;;14.25;66.91;99081.25;10316667;28;20133;-57
2023/04/24 00:47:22;;;;;;;0.75;0.30;;;;;;;14.24;66.87;99076.09;10316013;28;20081;-58
2023/04/24 00:52:24;;;;;;;0.73;0.50;;;;;;;14.25;66.81;99080.44;10321653;28;20406;-58
2023/04/24 00:57:26;;;;;;;1.80;0.30;;;;;;;14.22;66.69;99060.13;10304390;28;20088;-59
2023/04/24 01:02:27;;;;;;;0.30;0.20;;;;;;;14.25;66.79;99064.22;10320286;28;20096;-59
2023/04/24 01:07:29;;;;;;;3.03;0.30;;;;;;;14.26;66.89;99063.19;10328527;28;20049;-58
2023/04/24 01:12:30;;;;;;;1.15;0.30;;;;;;;14.20;67.22;99056.81;10321539;28;20096;-59
2023/04/24 01:17:32;;;;;;;2.25;0.30;;;;;;;14.21;67.11;99054.94;10334345;28;20070;-59
2023/04/24 01:22:34;;;;;;;2.40;0.30;;;;;;;14.25;66.89;99059.63;10330869;28;20120;-58
2023/04/24 01:27:36;;;;;;;4.88;0.40;;;;;;;14.20;66.83;99046.00;10327938;28;20085;-58
2023/04/24 01:32:38;;;;;;;4.15;0.30;;;;;;;14.20;66.75;99039.78;10326929;28;20070;-58
2023/04/24 01:37:40;;;;;;;1.88;0.22;;;;;;;14.17;66.83;99042.94;10330378;28;20141;-59
2023/04/24 01:42:42;;;;;;;2.08;0.30;;;;;;;14.11;66.87;99041.97;10323947;28;20071;-59
2023/04/24 01:47:43;;;;;;;2.00;0.30;;;;;;;14.14;66.71;99049.66;10322891;28;20039;-58
2023/04/24 01:52:45;;;;;;;0.70;0.32;;;;;;;14.12;66.83;99043.66;10334317;28;20081;-59
2023/04/24 01:57:46;;;;;;;0.40;0.20;;;;;;;14.10;67.02;99048.47;10331146;28;20387;-59
2023/04/24 02:02:48;;;;;;;2.45;0.38;;;;;;;14.14;66.87;99051.50;10331486;28;20042;-59
2023/04/24 02:07:50;;;;;;;3.22;0.30;;;;;;;14.05;66.97;99043.72;10335873;28;20049;-59
2023/04/24 02:12:52;;;;;;;0.88;0.30;;;;;;;14.02;66.87;99033.41;10316617;28;20073;-60
2023/04/24 02:17:53;;;;;;;2.67;0.43;;;;;;;14.01;66.75;99039.84;10324789;28;20444;-58
2023/04/24 02:22:54;;;;;;;1.27;0.30;;;;;;;14.04;66.82;99030.44;10318190;28;20052;-58
2023/04/24 02:27:56;;;;;;;1.05;0.38;;;;;;;13.93;66.84;99032.06;10314894;28;20051;-59
2023/04/24 02:32:57;;;;;;;3.33;0.40;;;;;;;13.95;66.91;99038.06;10329559;28;20072;-59
2023/04/24 02:37:59;;;;;;;5.22;0.28;;;;;;;13.96;66.92;99028.91;10321057;28;20042;-59
2023/04/24 02:43:00;;;;;;;1.48;0.30;;;;;;;13.90;66.60;99035.22;10328609;28;20149;-59
2023/04/24 02:48:02;;;;;;;1.17;0.30;;;;;;;13.84;67.23;99034.28;10336165;28;20061;-58
2023/04/24 02:53:03;;;;;;;1.35;0.25;;;;;;;13.81;67.38;99053.63;10325313;28;20077;-59
2023/04/24 02:58:05;;;;;;;2.15;0.35;;;;;;;13.81;66.94;99050.94;10327601;28;20046;-59
2023/04/24 03:03:07;;;;;;;2.10;0.70;;;;;;;13.93;66.94;99063.69;10324590;28;20391;-58
2023/04/24 03:08:08;;;;;;;2.25;0.30;;;;;;;13.82;67.26;99078.78;10323983;28;20038;-58
2023/04/24 03:13:10;;;;;;;0.95;0.40;;;;;;;13.74;67.25;99063.69;10323761;28;20088;-58
2023/04/24 03:18:11;;;;;;;0.60;0.30;;;;;;;13.63;67.47;99064.50;10328317;28;20125;-59
2023/04/24 03:23:13;;;;;;;2.95;0.45;;;;;;;13.61;67.46;99064.72;10324057;28;20485;-58
2023/04/24 03:28:14;;;;;;;0.80;0.30;;;;;;;13.55;67.70;99056.72;10329536;28;20062;-58
2023/04/24 03:33:15;;;;;;;3.47;0.45;;;;;;;13.55;67.72;99068.31;10321352;28;20133;-57
2023/04/24 03:38:17;;;;;;;0.40;0.30;;;;;;;13.56;67.58;99078.06;10335477;28;20092;-58
2023/04/24 03:43:18;;;;;;;1.45;0.30;;;;;;;13.55;68.11;99087.22;10318057;28;20077;-59
2023/04/24 03:48:19;;;;;;;1.27;0.65;;;;;;;13.56;67.88;99085.34;10317355;28;20108;-58
2023/04/24 03:53:21;;;;;;;1.48;0.40;;;;;;;13.55;68.13;99092.63;10331096;28;20077;-58
2023/04/24 03:58:23;;;;;;;1.83;0.50;;;;;;;13.60;67.92;99098.16;10318234;28;20577;-59
2023/04/24 04:03:25;;;;;;;2.30;0.47;;;;;;;13.55;68.21;99100.72;10317315;28;20060;-58
2023/04/24 04:08:26;;;;;;;3.00;0.40;;;;;;;13.46;68.16;99112.88;10316300;28;20053;-58
2023/04/24 04:13:28;;;;;;;1.45;0.40;;;;;;;13.42;67.47;99115.19;10317722;28;20046;-58
2023/04/24 04:18:29;;;;;;;1.00;0.35;;;;;;;13.56;66.76;99125.84;10330786;28;20081;-60
2023/04/24 04:23:31;;;;;;;0.70;0.30;;;;;;;13.43;66.40;99126.84;10330252;28;20126;-58
2023/04/24 04:28:34;;;;;;;1.02;0.40;;;;;;;13.40;65.56;99133.50;10318937;28;20074;-58
2023/04/24 04:33:38;;;;;;;0.80;0.40;;;;;;;13.34;65.49;99137.09;10316490;28;20061;-59
2023/04/24 04:38:40;;;;;;;1.25;0.40;;;;;;;13.22;64.77;99138.84;10322931;28;20065;-58
2023/04/24 04:43:43;;;;;;;0.98;0.60;;;;;;;13.18;64.23;99151.13;10328123;28;20035;-59
2023/04/24 04:48:45;;;;;;;1.58;0.73;;;;;;;13.08;63.67;99147.06;10322095;28;20112;-58
2023/04/24 04:53:46;;;;;;;0.47;0.30;;;;;;;13.05;63.55;99158.31;10323734;28;20194;-59
2023/04/24 04:58:48;;;;;;;2.55;0.40;;;;;;;12.98;63.04;99168.34;10325045;28;20066;-59
2023/04/24 05:03:49;;;;;;;3.50;0.45;;;;;;;13.02;62.80;99174.13;10326317;28;20054;-58
2023/04/24 05:08:51;;;;;;;1.80;0.40;;;;;;;12.97;62.42;99180.16;10324603;28;20069;-59
2023/04/24 05:13:52;;;;;;;1.60;0.30;;;;;;;12.89;62.02;99189.38;10334131;28;20113;-59
2023/04/24 05:18:53;;;;;;;2.58;0.50;;;;;;;12.81;61.88;99186.94;10332864;28;20497;-59
2023/04/24 05:23:55;;;;;;;1.90;0.30;;;;;;;12.86;61.88;99200.59;10312552;28;20112;-59
2023/04/24 05:28:56;;;;;;;0.30;0.30;;;;;;;12.70;61.32;99209.22;10312231;28;20086;-59
2023/04/24 05:33:57;;;;;;;3.03;0.50;;;;;;;12.66;61.84;99224.19;10325705;28;20074;-59
2023/04/24 05:38:59;;;;;;;2.25;0.50;;;;;;;12.69;61.44;99227.25;10331603;28;20113;-59
2023/04/24 05:44:00;;;;;;;2.55;1.27;;;;;;;12.69;61.21;99226.44;10324273;28;20058;-59
2023/04/24 05:49:02;;;;;;;1.50;0.70;;;;;;;12.58;61.26;99237.91;10320239;28;20105;-60
2023/04/24 05:54:04;;;;;;;2.40;0.60;;;;;;;12.55;61.65;99252.66;10302659;28;20050;-60
2023/04/24 05:59:05;;;;;;;2.40;0.80;;;;;;;12.56;61.04;99251.63;10323891;28;20076;-59
2023/04/24 06:04:06;;;;;;;1.73;0.80;;;;;;;12.77;60.16;99253.13;10316606;28;20046;-60
2023/04/24 06:09:08;;;;;;;3.88;0.63;;;;;;;12.75;59.53;99274.09;10333478;28;20149;-59
2023/04/24 06:14:10;;;;;;;1.88;1.08;;;;;;;12.62;59.17;99272.31;10335900;28;20489;-59
2023/04/24 06:19:11;;;;;;;1.30;0.80;;;;;;;12.53;58.85;99272.78;10322124;28;20748;-60
2023/04/24 06:24:14;;;;;;;3.25;1.08;;;;;;;12.62;58.47;99272.31;10323418;28;20069;-59
2023/04/24 06:29:15;;;;;;;3.13;1.10;;;;;;;12.64;58.40;99270.22;10315645;28;20051;-59
2023/04/24 06:34:17;;;;;;;1.85;0.95;;;;;;;12.64;58.71;99285.59;10325592;28;20047;-59
2023/04/24 06:39:18;;;;;;;1.60;1.30;;;;;;;12.64;58.10;99296.38;10327585;28;20053;-59
2023/04/24 06:44:19;;;;;;;1.42;1.23;;;;;;;12.65;57.79;99301.53;10315803;28;20061;-59
2023/04/24 06:49:21;;;;;;;2.25;1.23;;;;;;;12.67;57.72;99309.41;10324338;28;20084;-59
2023/04/24 06:54:22;;;;;;;2.67;1.33;;;;;;;12.77;58.04;99293.59;10326713;28;20069;-59
2023/04/24 06:59:24;;;;;;;1.67;1.00;;;;;;;12.87;57.51;99293.09;10319948;28;20046;-60
2023/04/24 07:04:26;;;;;;;3.17;1.67;;;;;;;12.91;57.55;99272.75;10313545;28;20038;-60
2023/04/24 07:09:28;;;;;;;1.50;1.00;;;;;;;13.04;57.23;99282.63;10322499;28;20181;-59
2023/04/24 07:14:29;;;;;;;2.40;1.65;;;;;;;13.15;57.10;99278.41;10310699;28;20050;-59
2023/04/24 07:19:31;;;;;;;1.75;1.10;;;;;;;13.28;56.49;99272.91;10294909;28;20117;-59
2023/04/24 07:24:32;;;;;;;4.30;1.73;;;;;;;13.24;56.36;99272.50;10312647;28;20054;-59
2023/04/24 07:29:34;;;;;;;2.72;1.50;;;;;;;13.31;56.22;99279.75;10314434;28;20047;-58
2023/04/24 07:34:35;;;;;;;1.20;0.90;;;;;;;13.22;55.08;99268.38;10323010;28;20050;-59
2023/04/24 07:39:37;;;;;;;2.40;0.80;;;;;;;13.56;55.46;99274.34;10315716;28;20800;-59
2023/04/24 07:44:38;;;;;;;0.60;0.60;;;;;;;13.62;54.66;99274.28;10300282;28;20051;-63
2023/04/24 07:49:41;;;;;;;1.55;1.05;;;;;;;13.53;54.17;99275.63;10320973;28;20057;-64
2023/04/24 07:54:42;;;;;;;1.10;0.80;;;;;;;13.53;54.24;99291.81;10311513;28;20050;-63
2023/04/24 07:59:44;;;;;;;1.63;0.95;;;;;;;13.86;54.30;99282.56;10320556;28;20049;-62
2023/04/24 08:04:46;;;;;;;1.20;0.70;;;;;;;13.89;53.88;99290.22;10314169;28;20498;-63
2023/04/24 08:09:47;;;;;;;2.65;1.10;;;;;;;14.06;53.81;99293.19;10287946;28;20548;-61
2023/04/24 08:14:49;;;;;;;1.45;0.93;;;;;;;14.23;53.51;99283.38;10313745;28;20046;-61
2023/04/24 08:19:52;;;;;;;1.60;0.95;;;;;;;14.54;53.41;99280.75;10311892;28;20105;-63
2023/04/24 08:24:54;;;;;;;1.38;0.73;;;;;;;14.56;52.78;99278.63;10317510;28;20402;-63
2023/04/24 08:29:57;;;;;;;4.63;0.65;;;;;;;14.71;51.96;99275.53;10330470;28;20050;-61
2023/04/24 08:34:59;;;;;;;1.48;0.73;;;;;;;14.62;51.03;99281.28;10329803;28;20167;-63
2023/04/24 08:40:05;;;;;;;1.08;0.80;;;;;;;14.88;50.30;99295.47;10332547;28;20041;-61
2023/04/24 08:45:07;;;;;;;1.75;0.73;;;;;;;15.00;50.19;99309.88;10332460;28;20152;-61
2023/04/24 08:50:11;;;;;;;2.45;0.70;;;;;;;14.77;49.96;99321.44;10325532;28;20464;-62
2023/04/24 08:55:14;;;;;;;2.97;0.90;;;;;;;14.47;49.72;99326.78;10328648;28;20050;-60
2023/04/24 09:00:16;;;;;;;3.53;0.70;;;;;;;14.35;49.98;99324.00;10328667;28;20814;-61
2023/04/24 09:05:20;;;;;;;3.17;0.70;;;;;;;14.35;49.66;99337.53;10335364;28;20054;-62
2023/04/24 09:10:23;;;;;;;3.55;0.82;;;;;;;14.39;49.95;99324.38;10342072;28;20054;-61
2023/04/24 09:15:24;;;;;;;1.58;0.70;;;;;;;14.55;50.10;99336.47;10328408;28;20062;-61
2023/04/24 09:20:26;;;;;;;1.20;0.75;;;;;;;14.45;50.31;99339.69;10323293;28;20096;-61
2023/04/24 09:25:35;;;;;;;4.15;0.80;;;;;;;14.37;50.64;99348.94;10318020;28;20469;-62
2023/04/24 09:30:37;;;;;;;2.78;0.70;;;;;;;14.45;50.72;99343.25;10325871;28;20051;-63
2023/04/24 09:35:43;;;;;;;1.00;0.70;;;;;;;14.52;51.16;99363.97;10328282;28;20102;-62
2023/04/24 09:40:44;;;;;;;2.00;0.80;;;;;;;14.53;51.11;99368.31;10323897;28;20108;-61
2023/04/24 09:45:46;;;;;;;1.20;0.80;;;;;;;14.51;50.91;99370.44;10302580;28;20054;-61
2023/04/24 09:50:51;;;;;;;2.85;0.77;;;;;;;14.43;51.33;99387.78;10328171;28;20112;-60
2023/04/24 09:55:53;;;;;;;1.73;0.60;;;;;;;14.29;51.60;99389.78;10312615;28;20606;-61
2023/04/24 10:00:56;;;;;;;0.70;0.50;;;;;;;14.29;51.44;99397.91;10324400;28;20104;-62
2023/04/24 10:05:59;;;;;;;1.40;0.70;;;;;;;14.14;51.62;99392.88;10318990;28;20050;-62
2023/04/24 10:11:01;;;;;;;1.17;0.85;;;;;;;14.06;51.90;99395.88;10305165;28;20051;-62
2023/04/24 10:16:04;;;;;;;1.55;0.75;;;;;;;14.10;52.20;99410.59;10325755;28;20540;-61
2023/04/24 10:21:05;;;;;;;1.55;0.80;;;;;;;14.08;52.99;99418.09;10314331;28;20050;-61
2023/04/24 10:26:09;;;;;;;1.38;0.80;;;;;;;13.62;55.63;99428.19;10297943;28;20051;-59
2023/04/24 10:31:12;;;;;;;2.33;0.77;;;;;;;13.17;58.21;99441.75;10326668;28;20050;-60
2023/04/24 10:36:15;;;;;;;1.98;0.90;;;;;;;12.70;60.39;99460.00;10327182;28;20109;-59
2023/04/24 10:41:20;;;;;;;2.22;1.67;;;;;;;12.31;62.49;99469.81;10304372;28;20046;-59
2023/04/24 10:46:22;;;;;;;2.75;1.17;;;;;;;12.02;64.20;99476.44;10324223;28;20121;-61
2023/04/24 10:51:25;;;;;;;3.25;1.02;;;;;;;11.77;65.66;99460.03;10318277;28;20051;-59
2023/04/24 10:56:27;;;;;;;2.13;1.00;;;;;;;11.79;66.73;99455.25;10312528;28;20587;-59
2023/04/24 11:01:31;;;;;;;1.75;1.13;;;;;;;12.02;67.35;99463.81;10318817;28;20050;-59
2023/04/24 11:06:35;;;;;;;1.50;0.63;;;;;;;12.09;68.56;99466.50;10318505;28;20069;-58
2023/04/24 11:11:44;;;;;;;2.85;1.13;;;;;;;12.54;68.30;99460.44;10332914;28;20078;-60
2023/04/24 11:16:52;;;;;;;1.70;0.65;;;;;;;12.87;67.27;99469.28;10350416;28;20057;-59
2023/04/24 11:22:02;;;;;;;2.03;1.17;;;;;;;13.16;66.15;99461.69;10356830;28;20050;-60
2023/04/24 11:27:04;;;;;;;1.20;0.40;;;;;;;13.65;64.95;99465.59;10363492;28;20133;-60
2023/04/24 11:32:40;;;;;;;1.63;0.40;;;;;;;13.97;63.27;99456.63;10347831;28;20058;-59
2023/04/24 11:37:43;;;;;;;0.28;0.28;;;;;;;14.26;61.08;99472.19;10329239;28;20054;-61
2023/04/24 11:42:49;;;;;;;0.75;0.50;;;;;;;14.66;58.43;99465.56;10319648;28;20050;-60
2023/04/24 11:47:51;;;;;;;3.92;0.30;;;;;;;14.73;57.41;99482.56;10335396;28;20319;-62
2023/04/24 11:52:53;;;;;;;0.50;0.30;;;;;;;14.77;56.89;99472.09;10333495;28;20081;-63
2023/04/24 11:57:59;;;;;;;0.60;0.40;;;;;;;15.28;56.61;99487.13;10333302;28;20058;-63
2023/04/24 12:03:08;;;;;;;1.67;0.30;;;;;;;15.38;56.22;99495.53;10334911;28;20042;-63
2023/04/24 12:08:10;;;;;;;0.70;0.30;;;;;;;15.33;54.74;99502.69;10313132;28;20561;-64
2023/04/24 12:13:13;;;;;;;1.50;0.50;;;;;;;15.39;54.12;99489.06;10308842;28;20050;-65
2023/04/24 12:18:16;;;;;;;2.50;0.40;;;;;;;15.26;51.47;99500.06;10319507;28;20462;-65
2023/04/24 12:23:35;;;;;;;0.80;0.40;;;;;;;15.24;51.72;99496.75;10314499;28;20073;-62
2023/04/24 12:28:38;;;;;;;0.70;0.50;;;;;;;15.28;52.72;99497.94;10327454;28;20057;-64
2023/04/24 12:33:39;;;;;;;1.35;0.50;;;;;;;15.21;53.78;99505.34;10304923;28;20097;-65
2023/04/24 12:38:44;;;;;;;0.98;0.40;;;;;;;15.71;53.22;99509.69;10338288;28;20050;-63
2023/04/24 12:43:53;;;;;;;0.82;0.43;;;;;;;16.02;52.86;99497.78;10313422;28;20042;-64
2023/04/24 12:48:54;;;;;;;2.70;0.65;;;;;;;16.33;52.94;99498.50;10327317;28;20050;-64
2023/04/24 12:53:56;;;;;;;2.67;0.57;;;;;;;16.37;53.22;99505.97;10316383;28;20062;-64
2023/04/24 12:58:57;;;;;;;3.08;0.50;;;;;;;16.57;53.68;99513.75;10297265;28;20062;-63
2023/04/24 13:03:59;;;;;;;3.00;0.60;;;;;;;16.63;53.36;99498.41;10326971;28;20069;-62
2023/04/24 13:09:01;;;;;;;2.78;0.68;;;;;;;16.22;53.32;99511.00;10328034;28;20061;-63
2023/04/24 13:14:02;;;;;;;0.50;0.50;;;;;;;15.89;51.95;99515.06;10326173;28;20077;-62
2023/04/24 13:19:03;;;;;;;2.55;0.80;;;;;;;15.76;49.89;99529.63;10314699;28;20109;-62
2023/04/24 13:24:07;;;;;;;1.95;0.90;;;;;;;15.54;49.96;99529.28;10318016;28;20112;-61
2023/04/24 13:29:09;;;;;;;2.55;0.90;;;;;;;16.56;49.00;99533.78;10324352;28;20043;-62
2023/04/24 13:34:10;;;;;;;4.28;1.10;;;;;;;15.78;49.33;99529.41;10310011;28;20126;-62
2023/04/24 13:39:12;;;;;;;3.35;1.05;;;;;;;15.46;48.56;99576.47;10325835;28;20058;-62
2023/04/24 13:44:15;;;;;;;3.63;0.65;;;;;;;14.63;50.25;99575.06;10324608;28;20070;-62
2023/04/24 13:49:17;;;;;;;1.80;0.70;;;;;;;14.52;50.11;99546.00;10313764;28;20054;-62
2023/04/24 13:54:18;;;;;;;5.38;1.15;;;;;;;14.73;49.56;99555.63;10320580;28;20045;-61
2023/04/24 13:59:21;;;;;;;2.30;1.13;;;;;;;15.30;49.14;99539.16;10320401;28;20080;-61
2023/04/24 14:04:22;;;;;;;3.00;1.60;;;;;;;15.15;48.74;99560.41;10315392;28;20050;-63
2023/04/24 14:09:24;;;;;;;2.58;1.23;;;;;;;15.26;49.18;99546.09;10318673;28;20054;-61
2023/04/24 14:14:26;;;;;;;7.35;1.35;;;;;;;16.09;48.03;99539.16;10325746;28;20081;-61
2023/04/24 14:19:27;;;;;;;3.50;1.27;;;;;;;17.05;46.15;99536.28;10295945;28;20128;-61
2023/04/24 14:24:29;;;;;;;3.28;1.02;;;;;;;17.58;45.02;99524.31;10314359;28;20089;-63
2023/04/24 14:29:30;;;;;;;3.03;0.90;;;;;;;18.77;41.98;99524.44;10315260;28;20046;-61
2023/04/24 14:34:34;;;;;;;1.33;1.00;;;;;;;18.44;42.69;99528.81;10308990;28;20116;-62
2023/04/24 14:39:35;;;;;;;4.13;1.10;;;;;;;17.85;43.18;99534.63;10319707;28;20042;-62
2023/04/24 14:44:36;;;;;;;2.45;1.02;;;;;;;17.43;43.46;99537.59;10325711;28;20074;-62
2023/04/24 14:49:38;;;;;;;1.30;0.80;;;;;;;17.03;43.36;99538.41;10318752;28;20058;-61
2023/04/24 14:54:39;;;;;;;2.33;0.80;;;;;;;16.37;42.48;99545.81;10302991;28;20073;-61
2023/04/24 14:59:41;;;;;;;2.28;0.80;;;;;;;16.04;43.22;99569.69;10299496;28;20042;-61
2023/04/24 15:04:42;;;;;;;2.78;1.05;;;;;;;16.13;42.51;99551.19;10332277;28;20046;-61
2023/04/24 15:09:46;;;;;;;4.72;1.52;;;;;;;16.18;42.39;99558.63;10304517;28;20422;-61
2023/04/24 15:14:48;;;;;;;2.28;0.85;;;;;;;16.00;42.09;99541.38;10323321;28;20061;-62
2023/04/24 15:19:49;;;;;;;1.90;0.60;;;;;;;16.00;42.04;99546.81;10325360;28;20486;-61
2023/04/24 15:24:51;;;;;;;1.40;1.00;;;;;;;15.96;42.50;99542.91;10322906;28;20342;-61
2023/04/24 15:29:53;;;;;;;3.55;0.90;;;;;;;16.15;42.77;99553.66;10308971;28;20101;-63
2023/04/24 15:34:54;;;;;;;5.03;1.33;;;;;;;16.37;42.68;99548.50;10323094;28;20050;-61
2023/04/24 15:40:11;;;;;;;1.95;1.02;;;;;;;16.53;43.54;99547.00;10318863;28;20132;-62
2023/04/24 15:45:13;;;;;;;2.95;1.40;;;;;;;16.33;43.66;99556.31;10315982;28;20108;-62
2023/04/24 15:50:18;;;;;;;4.93;1.10;;;;;;;16.22;43.68;99566.06;10314733;28;20116;-61
2023/04/24 15:55:20;;;;;;;3.50;0.70;;;;;;;15.99;42.87;99561.41;10320035;28;20049;-61
2023/04/24 16:00:22;;;;;;;2.65;0.93;;;;;;;15.71;42.18;99555.75;10314458;28;20073;-62
2023/04/24 16:05:23;;;;;;;1.98;0.93;;;;;;;15.79;41.80;99566.28;10311028;28;20069;-62
2023/04/24 16:10:25;;;;;;;2.80;1.10;;;;;;;16.39;41.71;99560.81;10318174;28;20442;-63
2023/04/24 16:15:27;;;;;;;2.00;1.00;;;;;;;16.68;41.46;99566.34;10324279;28;20185;-60
2023/04/24 16:20:28;;;;;;;3.67;0.90;;;;;;;16.54;41.21;99573.91;10333174;28;20545;-59
2023/04/24 16:25:29;;;;;;;3.70;1.05;;;;;;;16.57;41.31;99573.44;10308709;28;20498;-62
2023/04/24 16:30:31;;;;;;;1.88;1.00;;;;;;;16.64;40.99;99573.31;10325987;28;20077;-62
2023/04/24 16:35:32;;;;;;;2.75;1.05;;;;;;;16.54;40.68;99578.50;10318473;28;20045;-62
2023/04/24 16:40:34;;;;;;;4.53;1.30;;;;;;;16.35;41.01;99577.75;10334087;28;20457;-62
2023/04/24 16:45:35;;;;;;;1.55;0.90;;;;;;;16.56;41.10;99573.66;10335649;28;20107;-62
2023/04/24 16:50:37;;;;;;;2.40;0.95;;;;;;;16.45;41.57;99578.03;10325392;28;20054;-61
2023/04/24 16:55:38;;;;;;;2.45;0.70;;;;;;;16.20;41.58;99584.44;10327612;28;20070;-62
2023/04/24 17:00:39;;;;;;;1.67;0.98;;;;;;;15.96;41.75;99583.56;10326182;28;20139;-62
2023/04/24 17:05:41;;;;;;;1.65;0.80;;;;;;;15.72;42.04;99595.31;10326552;28;20042;-61
2023/04/24 17:10:42;;;;;;;1.92;1.10;;;;;;;15.48;42.46;99595.19;10334853;28;20513;-61
2023/04/24 17:15:44;;;;;;;2.38;1.00;;;;;;;15.51;42.49;99594.75;10309396;28;20478;-61
2023/04/24 17:20:45;;;;;;;3.38;1.10;;;;;;;15.97;42.10;99603.34;10317693;28;20054;-61
2023/04/24 17:25:47;;;;;;;5.65;1.45;;;;;;;16.03;42.39;99600.56;10314918;28;20109;-62
2023/04/24 17:30:49;;;;;;;1.98;0.90;;;;;;;16.11;42.64;99593.97;10331527;28;20074;-62
2023/04/24 17:35:50;;;;;;;1.45;0.80;;;;;;;16.03;43.14;99606.00;10326708;28;20058;-62
2023/04/24 17:40:52;;;;;;;4.75;1.10;;;;;;;15.93;43.71;99604.88;10320723;28;20875;-62
2023/04/24 17:45:58;;;;;;;2.70;1.10;;;;;;;15.79;44.09;99604.22;10330250;28;20046;-61
2023/04/24 17:51:00;;;;;;;2.83;1.27;;;;;;;15.92;44.26;99601.34;10323854;28;20061;-61
2023/04/24 17:56:02;;;;;;;3.78;1.30;;;;;;;15.93;44.18;99596.75;10326729;28;20055;-62
2023/04/24 18:01:04;;;;;;;3.38;1.27;;;;;;;15.77;44.79;99590.91;10331000;28;20046;-62
2023/04/24 18:06:05;;;;;;;1.70;1.23;;;;;;;15.79;44.67;99599.63;10330422;28;20245;-64
2023/04/24 18:11:07;;;;;;;2.45;1.52;;;;;;;15.67;45.00;99607.66;10318990;28;20047;-63
2023/04/24 18:16:08;;;;;;;2.33;1.30;;;;;;;15.21;46.00;99613.63;10328770;28;20390;-63
2023/04/24 18:21:10;;;;;;;2.13;1.13;;;;;;;15.16;46.29;99617.00;10323035;28;20050;-63
2023/04/24 18:26:15;;;;;;;2.95;1.48;;;;;;;15.18;45.95;99614.91;10331312;23;20045;-64
2023/04/24 18:31:17;;;;;;;4.72;1.80;;;;;;;15.10;46.37;99625.19;10425241;28;20052;-63
2023/04/24 18:36:19;;;;;;;3.17;1.85;;;;;;;14.74;47.73;99627.59;10409739;28;20042;-58
2023/04/24 18:41:20;;;;;;;1.50;1.25;;;;;;;14.59;49.03;99640.63;10413064;28;20037;-59
2023/04/24 18:46:21;;;;;;;3.17;1.85;;;;;;;14.44;50.02;99641.75;10406342;28;20132;-58
2023/04/24 18:51:23;;;;;;;4.50;2.33;;;;;;;14.33;50.81;99633.50;10424556;28;20053;-58
2023/04/24 18:56:24;;;;;;;2.80;1.65;;;;;;;14.36;50.83;99642.00;10421786;28;20045;-58
2023/04/24 19:01:26;;;;;;;3.97;1.60;;;;;;;14.23;51.77;99650.19;10422797;28;20120;-58
2023/04/24 19:06:27;;;;;;;4.88;1.77;;;;;;;14.10;52.53;99659.22;10429768;28;20515;-58
2023/04/24 19:11:29;;;;;;;3.00;2.13;;;;;;;13.84;53.55;99670.97;10429846;28;20381;-57
2023/04/24 19:16:30;;;;;;;2.42;1.73;;;;;;;13.60;54.18;99689.53;10431767;28;20040;-58
2023/04/24 19:21:33;;;;;;;2.65;2.00;;;;;;;13.46;55.01;99691.44;10426096;28;20105;-59
2023/04/24 19:26:34;;;;;;;3.22;2.35;;;;;;;12.89;57.07;99692.94;10429183;28;20045;-58
2023/04/24 19:31:35;;;;;;;2.75;2.00;;;;;;;12.53;58.90;99696.84;10427038;28;20069;-58
2023/04/24 19:36:37;;;;;;;3.10;2.45;;;;;;;12.09;60.96;99699.00;10426772;28;20061;-56
2023/04/24 19:41:38;;;;;;;2.95;1.70;;;;;;;11.49;62.79;99698.72;10421074;28;20053;-56
2023/04/24 19:46:40;;;;;;;3.38;2.30;;;;;;;11.17;64.10;99693.94;10410550;28;20076;-57
2023/04/24 19:51:41;;;;;;;5.28;3.33;;;;;;;11.08;64.87;99693.28;10402228;28;20049;-57
2023/04/24 19:56:43;;;;;;;4.30;2.75;;;;;;;11.15;65.04;99693.31;10404014;28;20582;-56
2023/04/24 20:01:44;;;;;;;5.85;2.92;;;;;;;11.21;64.74;99692.50;10426340;28;20057;-57
2023/04/24 20:06:46;;;;;;;5.68;3.47;;;;;;;11.28;64.34;99693.41;10406504;28;20052;-58
2023/04/24 20:11:50;;;;;;;5.57;3.35;;;;;;;11.50;64.45;99689.59;10409181;28;20053;-58
2023/04/24 20:16:53;;;;;;;5.03;3.17;;;;;;;11.71;63.74;99690.56;10434069;28;20091;-57
2023/04/24 20:21:54;;;;;;;5.20;3.28;;;;;;;11.83;63.96;99697.03;10431449;28;20514;-57
2023/04/24 20:26:55;;;;;;;4.90;2.78;;;;;;;11.88;64.07;99707.19;10430261;28;20114;-57
2023/04/24 20:31:57;;;;;;;3.45;2.63;;;;;;;11.77;65.18;99703.22;10414082;28;20045;-58
2023/04/24 20:36:58;;;;;;;4.13;2.20;;;;;;;11.78;65.32;99699.47;10414621;28;20052;-58
2023/04/24 20:42:00;;;;;;;4.55;2.17;;;;;;;11.89;64.99;99703.50;10429271;28;20045;-57
2023/04/24 20:47:01;;;;;;;4.95;2.00;;;;;;;11.93;64.84;99696.69;10423958;28;20049;-57
2023/04/24 20:52:03;;;;;;;3.13;2.25;;;;;;;11.96;65.38;99696.25;10426761;28;20045;-57
2023/04/24 20:57:04;;;;;;;2.95;2.10;;;;;;;11.92;65.31;99692.31;10428172;28;20037;-57
2023/04/24 21:02:06;;;;;;;4.60;1.70;;;;;;;11.82;65.91;99689.97;10424893;28;20045;-57
2023/04/24 21:07:09;;;;;;;4.18;2.45;;;;;;;11.70;66.08;99691.56;10425684;28;20049;-57
2023/04/24 21:12:10;;;;;;;3.22;1.85;;;;;;;11.79;65.32;99685.00;10421168;28;20378;-58
2023/04/24 21:17:11;;;;;;;5.30;1.77;;;;;;;11.78;65.48;99683.31;10429680;28;20073;-57
2023/04/24 21:22:13;;;;;;;6.93;1.63;;;;;;;11.76;65.55;99676.47;10427047;28;20087;-57
2023/04/24 21:27:14;;;;;;;4.40;2.00;;;;;;;11.77;65.35;99670.91;10424212;28;20156;-58
2023/04/24 21:32:16;;;;;;;3.72;2.60;;;;;;;11.77;65.38;99670.91;10426824;28;20329;-58
2023/04/24 21:37:17;;;;;;;3.22;1.70;;;;;;;11.69;65.98;99676.47;10409806;28;20069;-58
2023/04/24 21:42:18;;;;;;;3.45;1.88;;;;;;;11.68;65.87;99662.16;10426845;28;20103;-58
2023/04/24 21:47:20;;;;;;;5.25;2.33;;;;;;;11.64;66.33;99671.66;10425028;28;20049;-58
2023/04/24 21:52:21;;;;;;;5.82;2.17;;;;;;;11.68;66.03;99667.53;10425946;28;20381;-56
2023/04/24 21:57:23;;;;;;;8.05;2.47;;;;;;;11.69;66.35;99666.50;10420736;28;20596;-57
2023/04/24 22:02:24;;;;;;;4.05;2.35;;;;;;;11.61;66.72;99666.69;10425620;28;20700;-57
2023/04/24 22:07:26;;;;;;;6.53;2.72;;;;;;;11.57;67.21;99662.72;10421061;28;20072;-58
2023/04/24 22:12:27;;;;;;;4.72;2.72;;;;;;;11.60;67.26;99665.00;10424502;28;20040;-57
2023/04/24 22:17:29;;;;;;;4.88;3.40;;;;;;;11.57;67.32;99656.50;10406302;28;20065;-56
2023/04/24 22:22:30;;;;;;;5.20;3.03;;;;;;;11.31;67.93;99661.56;10426367;28;20073;-58
2023/04/24 22:27:33;;;;;;;8.60;3.58;;;;;;;11.10;68.79;99667.00;10426960;28;20049;-58
2023/04/24 22:32:36;;;;;;;6.75;3.67;;;;;;;10.84;69.91;99673.84;10425273;28;20124;-57
2023/04/24 22:37:38;;;;;;;6.75;4.60;;;;;;;10.67;70.41;99678.66;10424087;28;20057;-57
2023/04/24 22:42:39;;;;;;;7.07;4.40;;;;;;;10.67;70.54;99669.75;10422531;28;20103;-56
2023/04/24 22:47:40;;;;;;;9.35;4.63;;;;;;;10.52;70.90;99668.00;10429348;28;20454;-56
2023/04/24 22:52:42;;;;;;;8.18;5.30;;;;;;;10.52;71.14;99664.44;10410057;28;20059;-57
2023/04/24 22:57:44;;;;;;;11.73;5.10;;;;;;;10.58;71.47;99660.16;10422949;28;20045;-57
2023/04/24 23:02:45;;;;;;;9.57;5.88;;;;;;;10.52;71.67;99659.06;10434426;28;20488;-59
2023/04/24 23:07:47;;;;;;;11.15;5.70;;;;;;;10.55;71.71;99658.69;10422500;28;20068;-57
2023/04/24 23:12:49;;;;;;;10.70;5.85;;;;;;;10.51;71.95;99666.31;10424132;28;20053;-58
2023/04/24 23:17:50;;;;;;;10.05;6.45;;;;;;;10.55;72.33;99668.63;10422605;28;20045;-58
2023/04/24 23:22:51;;;;;;;11.05;6.40;;;;;;;10.62;72.23;99662.25;10411003;28;20045;-58